createdAt,value
2023-05-10T00:00:45.130Z,11.13
2023-05-10T00:03:34.165Z,10.55
2023-05-10T00:06:23.097Z,9.48
2023-05-10T00:09:12.318Z,9.70
2023-05-10T00:12:01.062Z,8.40
2023-05-10T00:14:51.184Z,9.13
2023-05-10T00:17:40.052Z,8.13
2023-05-10T00:20:29.159Z,8.77
2023-05-10T00:23:17.916Z,9.05
2023-05-10T00:26:07.114Z,8.05
2023-05-10T00:28:55.897Z,7.78
2023-05-10T00:31:46.146Z,7.43
2023-05-10T00:34:34.974Z,8.02
2023-05-10T00:37:23.627Z,7.13
2023-05-10T00:40:13.530Z,7.38
2023-05-10T00:43:04.512Z,7.97
2023-05-10T00:45:53.933Z,8.02
2023-05-10T00:48:44.710Z,7.90
2023-05-10T00:51:34.734Z,7.75
2023-05-10T00:54:23.604Z,7.47
2023-05-10T00:57:13.635Z,6.85
2023-05-10T01:00:04.097Z,7.18
2023-05-10T01:02:53.137Z,7.00
2023-05-10T01:05:43.910Z,6.85
2023-05-10T01:08:32.741Z,7.07
2023-05-10T01:11:21.994Z,6.63
2023-05-10T01:14:10.790Z,6.65
2023-05-10T01:16:59.662Z,6.75
2023-05-10T01:19:48.514Z,6.35
2023-05-10T01:23:02.029Z,6.43
2023-05-10T01:26:14.369Z,6.68
2023-05-10T01:29:39.223Z,6.28
2023-05-10T01:32:37.561Z,6.50
2023-05-10T01:35:34.343Z,6.57
2023-05-10T01:38:32.329Z,6.25
2023-05-10T01:41:30.448Z,6.60
2023-05-10T01:44:37.272Z,5.75
2023-05-10T01:47:33.429Z,6.07
2023-05-10T01:50:29.859Z,5.97
2023-05-10T01:53:22.654Z,5.47
2023-05-10T01:56:13.962Z,5.55
2023-05-10T01:59:07.610Z,5.78
2023-05-10T02:01:59.383Z,5.72
2023-05-10T02:04:49.918Z,5.80
2023-05-10T02:07:40.507Z,5.40
2023-05-10T02:10:31.074Z,5.20
2023-05-10T02:13:21.470Z,5.60
2023-05-10T02:16:11.520Z,5.50
2023-05-10T02:19:03.985Z,5.28
2023-05-10T02:21:53.913Z,4.82
2023-05-10T02:24:44.487Z,5.35
2023-05-10T02:27:33.833Z,5.43
2023-05-10T02:30:24.083Z,5.00
2023-05-10T02:33:14.288Z,5.28
2023-05-10T02:36:04.936Z,5.00
2023-05-10T02:38:55.204Z,5.30
2023-05-10T02:41:48.387Z,5.20
2023-05-10T02:44:38.981Z,5.10
2023-05-10T02:47:27.915Z,5.10
2023-05-10T02:50:17.667Z,5.20
2023-05-10T02:53:12.792Z,5.30
2023-05-10T02:56:08.173Z,5.22
2023-05-10T02:58:58.420Z,5.63
2023-05-10T03:01:47.238Z,4.95
2023-05-10T03:04:36.182Z,4.90
2023-05-10T03:07:25.326Z,5.13
2023-05-10T03:10:14.517Z,5.35
2023-05-10T03:13:12.255Z,5.85
2023-05-10T03:16:10.304Z,5.72
2023-05-10T03:19:08.829Z,5.65
2023-05-10T03:22:01.957Z,5.35
2023-05-10T03:24:58.382Z,5.63
2023-05-10T03:27:50.135Z,5.53
2023-05-10T03:30:41.667Z,5.80
2023-05-10T03:33:34.317Z,6.20
2023-05-10T03:36:23.128Z,6.05
2023-05-10T03:39:12.245Z,5.43
2023-05-10T03:42:01.074Z,6.20
2023-05-10T03:44:51.065Z,5.70
2023-05-10T03:47:41.813Z,5.57
2023-05-10T03:50:32.230Z,5.60
2023-05-10T03:53:21.552Z,5.35
2023-05-10T03:56:11.281Z,5.45
2023-05-10T03:59:00.181Z,5.72
2023-05-10T04:01:48.940Z,5.32
2023-05-10T04:04:37.801Z,5.85
2023-05-10T04:07:28.580Z,5.38
2023-05-10T04:10:18.958Z,5.05
2023-05-10T04:13:08.055Z,5.93
2023-05-10T04:15:56.677Z,5.50
2023-05-10T04:18:45.432Z,5.72
2023-05-10T04:21:34.196Z,5.63
2023-05-10T04:24:24.419Z,4.80
2023-05-10T04:27:13.132Z,5.50
2023-05-10T04:30:02.223Z,5.07
2023-05-10T04:32:51.433Z,5.50
2023-05-10T04:35:41.212Z,4.75
2023-05-10T04:38:29.963Z,4.80
2023-05-10T04:41:20.204Z,5.15
2023-05-10T04:44:08.880Z,5.05
2023-05-10T04:46:57.792Z,4.90
2023-05-10T04:49:46.759Z,4.40
2023-05-10T04:52:35.679Z,5.45
2023-05-10T04:55:24.514Z,5.32
2023-05-10T04:58:14.691Z,4.90
2023-05-10T05:01:08.649Z,4.68
2023-05-10T05:03:57.405Z,6.30
2023-05-10T05:06:46.285Z,4.63
2023-05-10T05:09:35.023Z,4.70
2023-05-10T05:12:23.878Z,4.97
2023-05-10T05:15:14.370Z,4.18
2023-05-10T05:18:03.820Z,5.30
2023-05-10T05:20:52.923Z,4.80
2023-05-10T05:23:41.629Z,4.93
2023-05-10T05:26:30.400Z,4.40
2023-05-10T05:29:19.443Z,4.65
2023-05-10T05:32:09.820Z,4.57
2023-05-10T05:34:58.740Z,4.28
2023-05-10T05:37:47.652Z,4.68
2023-05-10T05:40:36.551Z,4.25
2023-05-10T05:43:26.033Z,5.00
2023-05-10T05:46:14.857Z,4.70
2023-05-10T05:49:05.230Z,4.70
2023-05-10T05:51:54.127Z,4.38
2023-05-10T05:54:43.083Z,4.95
2023-05-10T05:57:32.330Z,4.20
2023-05-10T06:00:22.354Z,4.55
2023-05-10T06:03:11.738Z,4.50
2023-05-10T06:06:02.604Z,5.20
2023-05-10T06:08:51.297Z,4.90
2023-05-10T06:11:40.567Z,4.78
2023-05-10T06:14:29.647Z,4.88
2023-05-10T06:17:19.217Z,4.63
2023-05-10T06:20:09.097Z,4.40
2023-05-10T06:22:59.601Z,4.80
2023-05-10T06:25:48.848Z,4.70
2023-05-10T06:28:39.409Z,4.75
2023-05-10T06:31:28.359Z,3.90
2023-05-10T06:34:17.202Z,4.43
2023-05-10T06:37:06.384Z,4.50
2023-05-10T06:39:56.505Z,4.30
2023-05-10T06:42:46.046Z,4.03
2023-05-10T06:45:34.868Z,3.85
2023-05-10T06:48:24.133Z,3.85
2023-05-10T06:51:12.920Z,3.53
2023-05-10T06:54:02.030Z,4.00
2023-05-10T06:56:52.278Z,3.90
2023-05-10T06:59:41.023Z,3.30
2023-05-10T07:02:30.094Z,3.67
2023-05-10T07:05:19.407Z,3.35
2023-05-10T07:08:09.513Z,3.70
2023-05-10T07:11:02.911Z,3.70
2023-05-10T07:13:53.129Z,2.80
2023-05-10T07:16:42.082Z,2.90
2023-05-10T07:19:33.625Z,2.88
2023-05-10T07:22:22.359Z,2.90
2023-05-10T07:25:11.927Z,2.67
2023-05-10T07:28:00.923Z,2.60
2023-05-10T07:30:51.128Z,2.70
2023-05-10T07:33:39.760Z,2.70
2023-05-10T07:36:28.879Z,2.13
2023-05-10T07:39:26.547Z,2.25
2023-05-10T07:42:15.872Z,2.30
2023-05-10T07:45:05.128Z,2.25
2023-05-10T07:47:55.218Z,2.58
2023-05-10T07:50:44.033Z,2.42
2023-05-10T07:53:32.733Z,2.60
2023-05-10T07:56:28.118Z,2.83
2023-05-10T07:59:18.835Z,2.85
2023-05-10T08:02:08.393Z,2.35
2023-05-10T08:04:58.976Z,2.50
2023-05-10T08:07:47.712Z,2.47
2023-05-10T08:10:36.577Z,2.42
2023-05-10T08:13:25.876Z,1.90
2023-05-10T08:16:14.907Z,2.40
2023-05-10T08:19:04.046Z,2.45
2023-05-10T08:21:56.665Z,2.75
2023-05-10T08:24:45.504Z,2.10
2023-05-10T08:27:34.178Z,2.28
2023-05-10T08:30:23.198Z,2.38
2023-05-10T08:33:12.037Z,2.42
2023-05-10T08:36:00.895Z,2.30
2023-05-10T08:38:53.190Z,2.17
2023-05-10T08:41:42.322Z,2.50
2023-05-10T08:44:32.185Z,2.22
2023-05-10T08:47:21.217Z,2.30
2023-05-10T08:50:10.863Z,2.28
2023-05-10T08:53:03.210Z,2.38
2023-05-10T08:55:53.464Z,2.50
2023-05-10T08:58:42.441Z,2.67
2023-05-10T09:01:33.373Z,2.50
2023-05-10T09:04:23.157Z,2.83
2023-05-10T09:07:13.633Z,2.17
2023-05-10T09:10:02.511Z,2.60
2023-05-10T09:12:52.678Z,2.30
2023-05-10T09:15:41.663Z,2.63
2023-05-10T09:18:30.597Z,3.22
2023-05-10T09:21:22.884Z,2.72
2023-05-10T09:24:11.892Z,2.72
2023-05-10T09:27:01.171Z,2.33
2023-05-10T09:29:55.439Z,2.42
2023-05-10T09:32:46.404Z,2.70
2023-05-10T09:35:35.864Z,2.80
2023-05-10T09:38:24.821Z,2.60
2023-05-10T09:41:19.294Z,3.00
2023-05-10T09:44:10.186Z,2.70
2023-05-10T09:47:00.727Z,2.80
2023-05-10T09:49:52.419Z,2.72
2023-05-10T09:52:49.474Z,3.25
2023-05-10T09:55:43.885Z,2.47
2023-05-10T09:58:32.888Z,2.63
2023-05-10T10:01:21.890Z,2.60
2023-05-10T10:04:12.628Z,2.70
2023-05-10T10:07:03.781Z,2.92
2023-05-10T10:09:53.067Z,2.60
2023-05-10T10:12:44.067Z,2.58
2023-05-10T10:15:34.679Z,3.00
2023-05-10T10:18:28.266Z,3.15
2023-05-10T10:21:19.756Z,2.58
2023-05-10T10:24:08.983Z,3.25
2023-05-10T10:27:05.439Z,2.95
2023-05-10T10:30:03.858Z,2.67
2023-05-10T10:33:24.284Z,2.95
2023-05-10T10:36:19.509Z,2.92
2023-05-10T10:39:12.529Z,2.72
2023-05-10T10:42:03.780Z,2.80
2023-05-10T10:45:12.555Z,3.13
2023-05-10T10:48:23.814Z,3.00
2023-05-10T10:51:13.022Z,2.55
2023-05-10T10:54:11.511Z,2.70
2023-05-10T10:57:24.026Z,2.60
2023-05-10T11:00:30.196Z,2.60
2023-05-10T11:03:20.601Z,2.58
2023-05-10T11:06:10.102Z,2.55
2023-05-10T11:08:59.150Z,2.55
2023-05-10T11:11:56.436Z,2.55
2023-05-10T11:14:45.431Z,2.55
2023-05-10T11:17:36.992Z,2.95
2023-05-10T11:20:34.227Z,2.53
2023-05-10T11:23:23.106Z,2.38
2023-05-10T11:26:12.377Z,2.40
2023-05-10T11:29:04.236Z,2.72
2023-05-10T11:31:53.676Z,2.50
2023-05-10T11:34:42.533Z,2.63
2023-05-10T11:37:35.274Z,2.75
2023-05-10T11:40:25.600Z,2.45
2023-05-10T11:43:14.641Z,2.80
2023-05-10T11:46:05.171Z,2.67
2023-05-10T11:49:03.019Z,2.42
2023-05-10T11:51:51.890Z,2.88
2023-05-10T11:54:46.955Z,2.30
2023-05-10T11:57:39.445Z,2.60
2023-05-10T12:00:28.596Z,2.28
2023-05-10T12:03:19.302Z,2.90
2023-05-10T12:06:09.778Z,2.95
2023-05-10T12:08:59.096Z,5.97
2023-05-10T12:11:48.109Z,2.35
2023-05-10T12:14:37.094Z,2.70
2023-05-10T12:17:30.335Z,2.63
2023-05-10T12:20:22.192Z,3.10
2023-05-10T12:23:12.121Z,3.28
2023-05-10T12:26:05.194Z,2.67
2023-05-10T12:28:54.274Z,3.00
2023-05-10T12:31:53.385Z,2.42
2023-05-10T12:34:42.195Z,2.78
2023-05-10T12:37:37.108Z,2.60
2023-05-10T12:40:25.876Z,2.83
2023-05-10T12:43:14.777Z,3.42
2023-05-10T12:46:08.046Z,2.47
2023-05-10T12:49:07.814Z,2.40
2023-05-10T12:51:57.706Z,2.85
2023-05-10T12:54:48.642Z,2.95
2023-05-10T12:57:37.496Z,2.58
2023-05-10T13:00:26.906Z,2.92
2023-05-10T13:03:16.809Z,2.85
2023-05-10T13:06:06.198Z,2.65
2023-05-10T13:08:55.031Z,2.38
2023-05-10T13:11:46.373Z,2.47
2023-05-10T13:14:36.124Z,2.22
2023-05-10T13:17:25.967Z,2.50
2023-05-10T13:20:15.872Z,2.50
2023-05-10T13:23:05.614Z,2.40
2023-05-10T13:25:54.766Z,2.50
2023-05-10T13:28:47.104Z,2.80
2023-05-10T13:31:37.154Z,2.33
2023-05-10T13:34:26.610Z,2.17
2023-05-10T13:37:15.833Z,2.20
2023-05-10T13:40:05.298Z,2.30
2023-05-10T13:42:54.201Z,2.30
2023-05-10T13:45:45.152Z,2.75
2023-05-10T13:48:34.862Z,2.72
2023-05-10T13:51:25.696Z,2.40
2023-05-10T13:54:14.699Z,2.40
2023-05-10T13:57:03.767Z,2.40
2023-05-10T13:59:54.033Z,2.10
2023-05-10T14:02:45.658Z,2.25
2023-05-10T14:05:34.666Z,2.13
2023-05-10T14:08:24.029Z,2.33
2023-05-10T14:11:13.095Z,2.25
2023-05-10T14:14:02.230Z,2.50
2023-05-10T14:16:51.795Z,2.50
2023-05-10T14:19:42.312Z,2.00
2023-05-10T14:22:31.377Z,2.20
2023-05-10T14:25:20.903Z,2.60
2023-05-10T14:28:09.994Z,2.55
2023-05-10T14:30:58.974Z,2.50
2023-05-10T14:33:47.911Z,2.20
2023-05-10T14:36:38.678Z,1.98
2023-05-10T14:39:31.003Z,2.10
2023-05-10T14:42:20.507Z,2.10
2023-05-10T14:45:11.012Z,2.17
2023-05-10T14:48:00.931Z,2.30
2023-05-10T14:50:50.868Z,2.10
2023-05-10T14:53:42.028Z,2.13
2023-05-10T14:56:32.266Z,2.03
2023-05-10T14:59:21.309Z,2.13
2023-05-10T15:02:11.731Z,1.90
2023-05-10T15:05:01.880Z,2.45
2023-05-10T15:07:51.578Z,2.20
2023-05-10T15:10:41.903Z,2.10
2023-05-10T15:13:32.591Z,2.03
2023-05-10T15:16:22.562Z,2.28
2023-05-10T15:19:13.490Z,2.50
2023-05-10T15:22:02.494Z,2.00
2023-05-10T15:24:51.495Z,2.50
2023-05-10T15:27:41.939Z,2.53
2023-05-10T15:30:31.218Z,2.17
2023-05-10T15:33:20.127Z,2.40
2023-05-10T15:36:09.397Z,2.58
2023-05-10T15:38:58.619Z,2.45
2023-05-10T15:41:48.208Z,2.20
2023-05-10T15:44:39.575Z,2.40
2023-05-10T15:47:29.885Z,3.45
2023-05-10T15:50:19.321Z,4.07
2023-05-10T15:53:08.575Z,2.50
2023-05-10T15:55:59.072Z,2.30
2023-05-10T15:58:48.040Z,2.20
2023-05-10T16:01:38.831Z,2.10
2023-05-10T16:04:27.998Z,1.98
2023-05-10T16:07:17.002Z,2.10
2023-05-10T16:10:08.832Z,2.17
2023-05-10T16:12:59.344Z,2.00
2023-05-10T16:15:48.814Z,2.00
2023-05-10T16:18:39.657Z,2.00
2023-05-10T16:21:29.201Z,1.80
2023-05-10T16:24:20.714Z,2.20
2023-05-10T16:27:11.208Z,2.17
2023-05-10T16:30:02.108Z,1.80
2023-05-10T16:32:52.034Z,1.83
2023-05-10T16:35:42.898Z,1.70
2023-05-10T16:38:33.211Z,2.00
2023-05-10T16:41:23.554Z,2.03
2023-05-10T16:44:13.079Z,1.80
2023-05-10T16:47:03.626Z,2.35
2023-05-10T16:49:52.888Z,2.08
2023-05-10T16:52:43.447Z,2.22
2023-05-10T16:55:33.530Z,2.38
2023-05-10T16:58:23.879Z,1.85
2023-05-10T17:01:12.972Z,2.13
2023-05-10T17:04:02.520Z,2.17
2023-05-10T17:06:52.033Z,2.20
2023-05-10T17:09:43.543Z,2.65
2023-05-10T17:12:32.541Z,2.22
2023-05-10T17:15:21.957Z,1.90
2023-05-10T17:18:11.850Z,2.10
2023-05-10T17:21:01.185Z,2.28
2023-05-10T17:23:53.044Z,2.13
2023-05-10T17:26:44.651Z,2.20
2023-05-10T17:29:33.927Z,2.15
2023-05-10T17:32:22.960Z,2.10
2023-05-10T17:35:12.119Z,2.25
2023-05-10T17:38:01.474Z,1.95
2023-05-10T17:40:50.596Z,2.17
2023-05-10T17:43:41.068Z,2.35
2023-05-10T17:46:34.150Z,2.10
2023-05-10T17:49:23.147Z,2.47
2023-05-10T17:52:12.974Z,2.50
2023-05-10T17:55:03.399Z,2.30
2023-05-10T17:57:52.674Z,2.45
2023-05-10T18:00:43.795Z,3.08
2023-05-10T18:03:33.972Z,2.60
2023-05-10T18:06:23.727Z,2.40
2023-05-10T18:09:12.877Z,2.13
2023-05-10T18:12:03.667Z,2.40
2023-05-10T18:14:52.831Z,2.50
2023-05-10T18:17:44.162Z,2.75
2023-05-10T18:20:45.107Z,2.35
2023-05-10T18:23:34.938Z,2.50
2023-05-10T18:26:23.867Z,3.03
2023-05-10T18:29:13.930Z,2.70
2023-05-10T18:32:03.329Z,2.58
2023-05-10T18:34:56.745Z,2.70
2023-05-10T18:37:46.952Z,2.67
2023-05-10T18:40:36.037Z,2.88
2023-05-10T18:43:26.938Z,3.30
2023-05-10T18:46:16.489Z,2.92
2023-05-10T18:49:06.655Z,3.60
2023-05-10T18:51:58.915Z,3.53
2023-05-10T18:54:48.012Z,3.47
2023-05-10T18:57:41.870Z,4.15
2023-05-10T19:00:32.577Z,3.92
2023-05-10T19:03:22.619Z,4.05
2023-05-10T19:06:13.311Z,3.50
2023-05-10T19:09:14.655Z,3.38
2023-05-10T19:12:05.911Z,3.60
2023-05-10T19:14:56.014Z,3.60
2023-05-10T19:17:51.899Z,3.90
2023-05-10T19:20:42.677Z,3.90
2023-05-10T19:23:34.551Z,4.28
2023-05-10T19:26:27.713Z,3.80
2023-05-10T19:29:16.961Z,3.97
2023-05-10T19:32:06.406Z,3.80
2023-05-10T19:34:55.472Z,3.88
2023-05-10T19:37:46.238Z,3.63
2023-05-10T19:40:35.133Z,3.80
2023-05-10T19:43:25.740Z,3.78
2023-05-10T19:46:14.525Z,3.50
2023-05-10T19:49:03.751Z,3.88
2023-05-10T19:51:52.826Z,4.38
2023-05-10T19:54:41.713Z,3.70
2023-05-10T19:57:30.693Z,3.78
2023-05-10T20:00:21.284Z,4.35
2023-05-10T20:03:10.225Z,4.80
2023-05-10T20:05:59.236Z,4.72
2023-05-10T20:08:48.184Z,4.32
2023-05-10T20:11:37.205Z,4.45
2023-05-10T20:14:26.315Z,4.53
2023-05-10T20:17:16.703Z,4.47
2023-05-10T20:20:06.268Z,4.22
2023-05-10T20:22:55.230Z,4.50
2023-05-10T20:25:44.048Z,4.68
2023-05-10T20:28:33.435Z,4.40
2023-05-10T20:31:22.251Z,4.88
2023-05-10T20:34:13.416Z,4.90
2023-05-10T20:37:02.477Z,5.05
2023-05-10T20:39:51.731Z,5.13
2023-05-10T20:42:40.835Z,4.95
2023-05-10T20:45:29.854Z,5.10
2023-05-10T20:48:19.883Z,4.93
2023-05-10T20:51:10.383Z,5.30
2023-05-10T20:54:02.199Z,5.43
2023-05-10T20:56:51.209Z,5.70
2023-05-10T20:59:40.274Z,5.28
2023-05-10T21:02:29.319Z,5.30
2023-05-10T21:05:18.958Z,5.65
2023-05-10T21:08:09.264Z,5.30
2023-05-10T21:10:58.309Z,5.43
2023-05-10T21:13:47.534Z,5.70
2023-05-10T21:16:36.471Z,5.78
2023-05-10T21:19:25.556Z,6.05
2023-05-10T21:22:14.616Z,5.60
2023-05-10T21:25:05.220Z,6.07
2023-05-10T21:27:54.379Z,5.80
2023-05-10T21:30:43.330Z,6.00
2023-05-10T21:33:32.350Z,5.22
2023-05-10T21:36:21.281Z,5.38
2023-05-10T21:39:10.336Z,5.28
2023-05-10T21:42:01.016Z,5.68
2023-05-10T21:44:50.085Z,5.43
2023-05-10T21:47:38.976Z,5.40
2023-05-10T21:50:28.686Z,5.18
2023-05-10T21:53:17.936Z,5.20
2023-05-10T21:56:07.321Z,4.90
2023-05-10T21:58:58.311Z,4.45
2023-05-10T22:01:47.587Z,4.72
2023-05-10T22:04:36.431Z,5.13
2023-05-10T22:07:25.222Z,4.97
2023-05-10T22:10:13.992Z,4.40
2023-05-10T22:13:02.709Z,4.30
2023-05-10T22:15:52.870Z,4.38
2023-05-10T22:18:41.747Z,4.25
2023-05-10T22:21:31.000Z,5.03
2023-05-10T22:24:19.950Z,4.70
2023-05-10T22:27:08.817Z,4.22
2023-05-10T22:29:58.192Z,4.60
2023-05-10T22:32:48.890Z,4.15
2023-05-10T22:35:37.745Z,4.30
2023-05-10T22:38:26.488Z,4.13
2023-05-10T22:41:15.244Z,4.45
2023-05-10T22:44:05.034Z,4.38
2023-05-10T22:46:53.801Z,4.75
2023-05-10T22:49:44.160Z,3.92
2023-05-10T22:52:33.370Z,4.05
2023-05-10T22:55:22.197Z,4.20
2023-05-10T22:58:11.032Z,4.35
2023-05-10T23:00:59.776Z,4.00
2023-05-10T23:03:48.511Z,4.55
2023-05-10T23:06:39.639Z,3.85
2023-05-10T23:09:28.421Z,3.75
2023-05-10T23:12:17.116Z,4.00
2023-05-10T23:15:06.846Z,4.00
2023-05-10T23:17:55.631Z,3.72
2023-05-10T23:20:44.792Z,3.97
2023-05-10T23:23:35.473Z,3.92
2023-05-10T23:26:24.227Z,3.60
2023-05-10T23:29:12.967Z,3.63
2023-05-10T23:32:02.062Z,3.55
2023-05-10T23:34:50.925Z,4.30
2023-05-10T23:37:39.748Z,3.85
2023-05-10T23:40:29.975Z,3.70
2023-05-10T23:43:19.911Z,3.70
2023-05-10T23:46:08.739Z,3.70
2023-05-10T23:48:57.480Z,3.75
2023-05-10T23:51:46.234Z,4.03
2023-05-10T23:54:35.004Z,3.78
2023-05-10T23:57:25.168Z,3.55
